首页
METAR-TAF:

METAR-TAF

机场 :

伊麗莎白港機場

伊莉莎白港, 南非共和國

纬度: 33-59S, 经度: 025-36E, 海拔: 61米

当前天气观测

该预报发布于25分钟前的10:00 UTC
风速15节,风向
温度 22°C
湿度 60%
气压 1024 hPa
能见度10公里或以上
少量云层高于3500英尺

METAR: FAPE 021000Z 08015KT 9999 FEW035 22/14 Q1024 NOSIG

时间: 12:25 (10:25 UTC)

预报

该预报发布于6小时和25分钟前的04:00 UTC
预报有效从02日的 06点(UTC)到 03日的 06点(UTC)
风速16节,风向东转东北
能见度10公里或以上
少量云层高于4200英尺
成为
从 02日的 07点(UTC)到 02日的 09点(UTC)
能见度10公里或以上
1500米以下无云,无积雨云
短暂存在
从 02日的 16点(UTC)到 03日的 02点(UTC)
风速20节,风向东转东北,有时为30节阵风

TAF: FAPE 020400Z 0206/0306 07016KT 9999 FEW042 TX24/0211Z TN18/0303Z BECMG 0207/0209 CAVOK TEMPO 0216/0302 07020G30KT

超过4000个机场的气象观测和天气预报(METAR&TAF报告)。

可查询的气象台以黄色和红色小点在地图上表示。

将鼠标移到小点上方,可查看气象台名称。

然后点击查看天气观测和预报。

如需切换地图:点击带黑十字的绿色按钮放大地图;点击带横线的绿色按钮缩小地图;或者点击绿色箭头查看邻近地区的地图。


METAR-TAF: